Time;durP1;ratioP1;P1;durP2;ratioP2;P2;SDS_P1;SDS_P2;PMS_P1;PMS_P2;Temp;Humidity;BMP_temperature;BMP_pressure;BME280_temperature;BME280_humidity;BME280_pressure;Samples;Min_cycle;Max_cycle;Signal;HPM_P1;HPM_P2
2023/11/11 00:00:36;;;;;;;8.68;6.28;;;;;;;;;;4974859;28;20026;-71
2023/11/11 00:03:06;;;;;;;6.82;6.13;;;;;;;;;;4974588;28;20078;-71
2023/11/11 00:05:31;;;;;;;9.00;6.43;;;;;;;;;;4974809;28;20538;-71
2023/11/11 00:07:57;;;;;;;8.82;6.78;;;;;;;;;;4975947;28;20103;-71
2023/11/11 00:10:23;;;;;;;7.03;5.78;;;;;;;;;;4960991;28;20105;-71
2023/11/11 00:12:48;;;;;;;5.82;5.05;;;;;;;;;;4960977;28;20030;-71
2023/11/11 00:15:14;;;;;;;6.90;5.65;;;;;;;;;;4978257;28;20027;-71
2023/11/11 00:17:40;;;;;;;5.43;4.57;;;;;;;;;;4978150;28;20066;-71
2023/11/11 00:20:12;;;;;;;8.60;5.20;;;;;;;;;;4978182;28;20463;-71
2023/11/11 00:22:39;;;;;;;5.82;5.25;;;;;;;;;;4978554;28;20102;-71
2023/11/11 00:25:05;;;;;;;6.20;5.18;;;;;;;;;;4978371;28;20089;-71
2023/11/11 00:27:31;;;;;;;7.15;5.97;;;;;;;;;;4978589;28;20034;-71
2023/11/11 00:29:57;;;;;;;8.20;6.25;;;;;;;;;;4960628;28;20034;-71
2023/11/11 00:32:23;;;;;;;8.02;6.07;;;;;;;;;;4960610;28;20053;-71
2023/11/11 00:34:49;;;;;;;6.93;6.22;;;;;;;;;;4977792;28;20027;-71
2023/11/11 00:37:15;;;;;;;9.57;6.43;;;;;;;;;;4944471;28;20093;-71
2023/11/11 00:39:40;;;;;;;6.30;5.65;;;;;;;;;;4944480;28;20038;-71
2023/11/11 00:42:07;;;;;;;8.18;6.30;;;;;;;;;;4960480;28;20035;-71
2023/11/11 00:44:33;;;;;;;9.38;6.95;;;;;;;;;;4944592;28;20395;-71
2023/11/11 00:46:59;;;;;;;10.32;7.18;;;;;;;;;;4977677;28;20035;-71
2023/11/11 00:49:24;;;;;;;8.35;7.45;;;;;;;;;;4978178;28;20037;-71
2023/11/11 00:51:52;;;;;;;8.27;7.20;;;;;;;;;;4977859;28;20038;-71
2023/11/11 00:54:17;;;;;;;8.82;7.22;;;;;;;;;;4977395;28;20110;-71
2023/11/11 00:56:42;;;;;;;8.63;7.60;;;;;;;;;;4960133;28;20469;-71
2023/11/11 00:59:10;;;;;;;11.10;7.13;;;;;;;;;;4977745;28;20034;-71
2023/11/11 01:01:35;;;;;;;8.82;7.53;;;;;;;;;;4977466;28;20034;-71
2023/11/11 01:04:01;;;;;;;8.98;7.07;;;;;;;;;;4977409;28;20027;-71
2023/11/11 01:06:26;;;;;;;9.63;8.15;;;;;;;;;;4977627;28;20035;-71
2023/11/11 01:08:52;;;;;;;11.60;8.77;;;;;;;;;;4960321;28;20034;-71
2023/11/11 01:11:19;;;;;;;10.40;8.75;;;;;;;;;;4959889;28;20026;-71
2023/11/11 01:13:45;;;;;;;10.38;8.30;;;;;;;;;;4960215;28;20034;-71
2023/11/11 01:16:10;;;;;;;9.15;6.57;;;;;;;;;;4959844;28;20034;-71
2023/11/11 01:18:36;;;;;;;8.40;7.03;;;;;;;;;;4977330;28;20463;-71
2023/11/11 01:21:02;;;;;;;7.95;6.43;;;;;;;;;;4976835;28;20029;-71
2023/11/11 01:23:30;;;;;;;9.20;7.10;;;;;;;;;;4977012;28;20467;-71
2023/11/11 01:25:55;;;;;;;10.43;8.40;;;;;;;;;;4959616;28;20081;-71
2023/11/11 01:28:21;;;;;;;9.18;7.22;;;;;;;;;;4959636;28;20014;-71
2023/11/11 01:30:46;;;;;;;8.18;6.80;;;;;;;;;;4959550;28;20406;-71
2023/11/11 01:33:11;;;;;;;7.93;7.03;;;;;;;;;;4959556;28;20078;-71
2023/11/11 01:35:37;;;;;;;8.30;7.13;;;;;;;;;;4977346;28;20027;-71
2023/11/11 01:38:03;;;;;;;9.40;8.13;;;;;;;;;;4976713;28;20466;-71
2023/11/11 01:40:28;;;;;;;8.75;7.35;;;;;;;;;;4976760;28;20534;-71
2023/11/11 01:42:54;;;;;;;8.02;6.88;;;;;;;;;;4959308;28;20027;-71
2023/11/11 01:45:20;;;;;;;8.55;7.65;;;;;;;;;;4959298;28;20062;-71
2023/11/11 01:47:45;;;;;;;8.85;7.95;;;;;;;;;;4976602;28;20039;-71
2023/11/11 01:50:12;;;;;;;10.13;7.97;;;;;;;;;;4976534;28;20059;-71
2023/11/11 01:52:38;;;;;;;8.38;7.47;;;;;;;;;;4959113;28;20026;-71
2023/11/11 01:55:04;;;;;;;6.40;5.75;;;;;;;;;;4943005;28;20055;-71
2023/11/11 01:57:30;;;;;;;6.28;5.63;;;;;;;;;;4958996;28;20085;-71
2023/11/11 01:59:57;;;;;;;8.55;7.13;;;;;;;;;;4959014;28;20034;-71
2023/11/11 02:02:23;;;;;;;7.55;6.30;;;;;;;;;;4959022;28;20495;-71
2023/11/11 02:04:49;;;;;;;8.02;7.10;;;;;;;;;;4958887;28;20023;-70
2023/11/11 02:10:13;;;;;;;9.60;8.48;;;;;;;;;;5037666;23;20083;-68
2023/11/11 02:12:39;;;;;;;9.10;8.10;;;;;;;;;;5017967;23;20057;-68
2023/11/11 02:15:04;;;;;;;10.73;9.10;;;;;;;;;;5035078;28;20032;-69
2023/11/11 02:17:30;;;;;;;11.20;9.98;;;;;;;;;;5034693;28;20088;-69
2023/11/11 02:19:55;;;;;;;11.95;10.10;;;;;;;;;;5034892;28;20030;-68
2023/11/11 02:22:22;;;;;;;11.25;10.07;;;;;;;;;;5034709;28;20032;-68
2023/11/11 02:24:49;;;;;;;12.63;10.60;;;;;;;;;;5034890;28;20449;-68
2023/11/11 02:27:14;;;;;;;13.48;9.93;;;;;;;;;;5034618;28;20477;-70
2023/11/11 02:29:44;;;;;;;13.18;10.05;;;;;;;;;;5016842;28;20087;-70
2023/11/11 02:32:09;;;;;;;11.23;9.50;;;;;;;;;;5034496;28;20033;-70
2023/11/11 02:34:35;;;;;;;11.02;9.80;;;;;;;;;;5034511;28;20033;-70
2023/11/11 02:37:00;;;;;;;11.02;9.65;;;;;;;;;;5034370;28;20079;-71
2023/11/11 02:39:25;;;;;;;11.95;9.90;;;;;;;;;;5016627;28;20068;-71
2023/11/11 02:41:52;;;;;;;10.82;9.32;;;;;;;;;;5034462;28;20034;-71
2023/11/11 02:44:17;;;;;;;11.07;9.93;;;;;;;;;;5034403;28;20057;-71
2023/11/11 02:46:43;;;;;;;11.50;10.30;;;;;;;;;;5034408;28;20017;-71
2023/11/11 02:49:08;;;;;;;10.63;9.30;;;;;;;;;;5016513;28;20037;-70
2023/11/11 02:51:34;;;;;;;12.30;10.45;;;;;;;;;;5034174;28;20393;-70
2023/11/11 02:54:00;;;;;;;12.85;10.13;;;;;;;;;;5016735;28;20101;-70
2023/11/11 02:56:25;;;;;;;13.35;10.13;;;;;;;;;;5016378;28;20393;-70
2023/11/11 02:58:50;;;;;;;13.32;10.88;;;;;;;;;;5034101;28;20041;-70
2023/11/11 03:01:16;;;;;;;12.02;10.40;;;;;;;;;;5034026;28;20026;-70
2023/11/11 03:03:41;;;;;;;13.93;11.27;;;;;;;;;;5016193;28;20469;-70
2023/11/11 03:06:06;;;;;;;15.43;11.27;;;;;;;;;;5033901;28;20388;-70
2023/11/11 03:08:36;;;;;;;14.75;12.85;;;;;;;;;;5016704;28;20435;-70
2023/11/11 03:11:03;;;;;;;17.90;13.05;;;;;;;;;;5033845;28;20393;-71
2023/11/11 03:13:29;;;;;;;20.05;15.00;;;;;;;;;;5049099;28;20048;-70
2023/11/11 03:15:54;;;;;;;19.05;14.82;;;;;;;;;;5033772;28;20025;-70
2023/11/11 03:18:20;;;;;;;17.42;13.32;;;;;;;;;;5033644;28;20033;-70
2023/11/11 03:20:45;;;;;;;15.45;12.10;;;;;;;;;;5016454;28;20044;-70
2023/11/11 03:23:10;;;;;;;15.05;12.10;;;;;;;;;;5033650;28;20025;-70
2023/11/11 03:25:36;;;;;;;14.23;12.13;;;;;;;;;;5016177;28;20076;-70
2023/11/11 03:28:01;;;;;;;14.30;11.77;;;;;;;;;;5033702;28;20029;-70
2023/11/11 03:30:27;;;;;;;13.75;10.52;;;;;;;;;;4999896;28;20041;-70
2023/11/11 03:32:52;;;;;;;14.30;10.88;;;;;;;;;;5033678;28;20063;-70
2023/11/11 03:35:18;;;;;;;13.93;10.73;;;;;;;;;;5033665;28;20479;-70
2023/11/11 03:37:43;;;;;;;13.50;10.85;;;;;;;;;;5015705;28;20033;-70
2023/11/11 03:40:10;;;;;;;12.38;11.07;;;;;;;;;;4999429;28;20484;-70
2023/11/11 03:42:36;;;;;;;15.80;12.27;;;;;;;;;;5017210;28;20017;-70
2023/11/11 03:45:01;;;;;;;16.92;12.70;;;;;;;;;;5040066;28;20032;-70
2023/11/11 03:47:26;;;;;;;18.48;13.80;;;;;;;;;;5040118;28;20065;-70
2023/11/11 03:49:52;;;;;;;18.33;13.98;;;;;;;;;;5040067;28;20033;-71
2023/11/11 03:52:17;;;;;;;20.23;15.30;;;;;;;;;;5022214;28;20526;-70
2023/11/11 03:54:44;;;;;;;19.63;14.07;;;;;;;;;;5022333;28;20116;-71
2023/11/11 03:57:10;;;;;;;18.15;13.55;;;;;;;;;;5039985;28;20109;-71
2023/11/11 03:59:35;;;;;;;17.92;13.45;;;;;;;;;;5022264;28;20444;-70
2023/11/11 04:02:00;;;;;;;18.83;13.57;;;;;;;;;;5022182;28;20473;-70
2023/11/11 04:04:26;;;;;;;17.52;13.38;;;;;;;;;;5022104;28;20037;-70
2023/11/11 04:06:52;;;;;;;18.38;13.82;;;;;;;;;;5022089;28;20025;-70
2023/11/11 04:09:17;;;;;;;17.63;13.98;;;;;;;;;;5022060;28;20092;-70
2023/11/11 04:11:43;;;;;;;19.02;13.60;;;;;;;;;;5021923;28;20397;-71
2023/11/11 04:14:08;;;;;;;19.08;13.70;;;;;;;;;;5021976;28;20037;-70
2023/11/11 04:16:35;;;;;;;18.38;14.27;;;;;;;;;;5039746;28;20036;-71
2023/11/11 04:19:00;;;;;;;23.17;15.75;;;;;;;;;;5021985;28;20036;-70
2023/11/11 04:21:26;;;;;;;21.77;15.25;;;;;;;;;;5021962;28;20021;-71
2023/11/11 04:23:51;;;;;;;23.17;15.93;;;;;;;;;;5040169;28;20057;-69
2023/11/11 04:26:16;;;;;;;22.83;15.50;;;;;;;;;;5039787;28;20072;-69
2023/11/11 04:28:45;;;;;;;21.50;16.00;;;;;;;;;;5022365;28;20029;-69
2023/11/11 04:31:17;;;;;;;23.33;16.17;;;;;;;;;;5022137;28;20075;-68
2023/11/11 04:33:42;;;;;;;26.73;16.60;;;;;;;;;;5039751;28;20041;-68
2023/11/11 04:36:07;;;;;;;24.90;16.98;;;;;;;;;;5039598;28;20084;-68
2023/11/11 04:38:37;;;;;;;21.98;15.82;;;;;;;;;;5039502;28;20040;-68
2023/11/11 04:41:04;;;;;;;22.67;16.27;;;;;;;;;;5039545;28;20033;-68
2023/11/11 04:43:29;;;;;;;21.88;16.35;;;;;;;;;;5039476;28;20022;-68
2023/11/11 04:45:55;;;;;;;22.08;16.50;;;;;;;;;;5039518;28;20064;-68
2023/11/11 04:48:20;;;;;;;24.88;16.42;;;;;;;;;;5039707;28;20033;-68
2023/11/11 04:50:46;;;;;;;24.85;16.98;;;;;;;;;;5039463;28;20049;-68
2023/11/11 04:53:11;;;;;;;26.38;17.48;;;;;;;;;;5039504;28;20044;-68
2023/11/11 04:55:36;;;;;;;23.58;16.85;;;;;;;;;;5035583;28;20488;-68
2023/11/11 04:58:03;;;;;;;28.70;18.30;;;;;;;;;;5036226;28;20535;-68
2023/11/11 05:00:29;;;;;;;27.02;16.98;;;;;;;;;;5036241;28;20083;-68
2023/11/11 05:02:54;;;;;;;24.00;17.75;;;;;;;;;;5036411;28;20049;-68
2023/11/11 05:05:20;;;;;;;26.42;18.52;;;;;;;;;;5036168;28;20492;-68
2023/11/11 05:07:45;;;;;;;26.48;17.85;;;;;;;;;;5036145;28;20037;-68
2023/11/11 05:10:15;;;;;;;26.38;18.08;;;;;;;;;;5036079;28;20048;-68
2023/11/11 05:12:41;;;;;;;26.58;17.67;;;;;;;;;;5035948;28;20088;-68
2023/11/11 05:15:14;;;;;;;27.73;18.02;;;;;;;;;;5036055;28;20040;-69
2023/11/11 05:17:46;;;;;;;25.35;17.95;;;;;;;;;;5035896;28;20041;-69
2023/11/11 05:20:13;;;;;;;29.27;18.65;;;;;;;;;;5035846;28;20458;-69
2023/11/11 05:22:38;;;;;;;27.63;18.80;;;;;;;;;;5018133;28;20026;-69
2023/11/11 05:25:04;;;;;;;30.98;19.15;;;;;;;;;;5035833;28;20026;-68
2023/11/11 05:27:30;;;;;;;26.45;18.02;;;;;;;;;;5018184;28;20033;-68
2023/11/11 05:29:57;;;;;;;27.38;17.90;;;;;;;;;;5035760;28;20512;-69
2023/11/11 05:32:23;;;;;;;25.17;18.52;;;;;;;;;;5035760;28;20033;-69
2023/11/11 05:34:48;;;;;;;31.38;18.95;;;;;;;;;;5035688;28;20037;-69
2023/11/11 05:37:14;;;;;;;24.92;18.02;;;;;;;;;;5035585;28;20033;-69
2023/11/11 05:39:44;;;;;;;27.70;18.90;;;;;;;;;;5035527;28;20060;-69
2023/11/11 05:42:10;;;;;;;29.08;19.30;;;;;;;;;;5035523;28;20091;-69
2023/11/11 05:44:35;;;;;;;30.35;19.42;;;;;;;;;;5035445;28;20108;-69
2023/11/11 05:47:00;;;;;;;27.70;18.67;;;;;;;;;;5035401;28;20030;-68
2023/11/11 05:49:26;;;;;;;30.42;19.67;;;;;;;;;;5035349;28;20036;-68
2023/11/11 05:51:52;;;;;;;29.73;19.15;;;;;;;;;;5035322;28;20030;-68
2023/11/11 05:54:18;;;;;;;25.67;17.45;;;;;;;;;;5035350;28;20029;-68
2023/11/11 05:56:44;;;;;;;24.83;17.73;;;;;;;;;;5017333;28;20033;-68
2023/11/11 05:59:10;;;;;;;24.63;17.27;;;;;;;;;;5035579;28;20014;-68
2023/11/11 06:01:35;;;;;;;24.67;16.70;;;;;;;;;;5035090;28;20065;-68
2023/11/11 06:04:00;;;;;;;24.83;16.30;;;;;;;;;;5035091;28;20032;-69
2023/11/11 06:06:26;;;;;;;23.25;16.35;;;;;;;;;;5017047;28;20039;-69
2023/11/11 06:08:51;;;;;;;28.65;18.17;;;;;;;;;;5035010;28;20120;-69
2023/11/11 06:11:16;;;;;;;28.17;18.77;;;;;;;;;;5035032;28;20061;-69
2023/11/11 06:13:42;;;;;;;27.67;18.02;;;;;;;;;;5035087;28;20518;-68
2023/11/11 06:16:09;;;;;;;28.55;18.60;;;;;;;;;;5034860;28;20025;-69
2023/11/11 06:18:35;;;;;;;31.00;19.58;;;;;;;;;;5034756;28;20048;-69
2023/11/11 06:21:00;;;;;;;28.05;19.85;;;;;;;;;;5017173;28;20022;-68
2023/11/11 06:23:25;;;;;;;33.83;20.70;;;;;;;;;;5034831;28;20022;-68
2023/11/11 06:25:51;;;;;;;32.53;21.20;;;;;;;;;;5034665;28;20025;-68
2023/11/11 06:28:16;;;;;;;31.63;20.85;;;;;;;;;;5034620;28;20117;-68
2023/11/11 06:30:42;;;;;;;32.20;20.60;;;;;;;;;;5034577;28;20436;-68
2023/11/11 06:33:08;;;;;;;32.53;20.52;;;;;;;;;;5034478;28;20029;-68
2023/11/11 06:35:34;;;;;;;35.35;20.92;;;;;;;;;;5016877;28;20071;-68
2023/11/11 06:37:59;;;;;;;31.10;20.58;;;;;;;;;;5049719;28;20393;-68
2023/11/11 06:40:26;;;;;;;29.17;19.63;;;;;;;;;;5034393;28;20025;-68
2023/11/11 06:42:54;;;;;;;29.70;19.23;;;;;;;;;;5034449;28;20380;-68
2023/11/11 06:45:20;;;;;;;37.22;21.67;;;;;;;;;;5034286;28;20030;-68
2023/11/11 06:47:46;;;;;;;48.78;24.88;;;;;;;;;;5016498;28;20040;-68
2023/11/11 06:50:11;;;;;;;49.70;25.90;;;;;;;;;;5034285;28;20034;-68
2023/11/11 06:52:37;;;;;;;46.00;25.08;;;;;;;;;;5034196;28;20164;-68
2023/11/11 06:55:03;;;;;;;55.17;26.42;;;;;;;;;;5034321;28;20044;-68
2023/11/11 06:57:28;;;;;;;56.40;28.25;;;;;;;;;;5049340;28;20080;-68
2023/11/11 06:59:54;;;;;;;102.07;48.03;;;;;;;;;;5034112;28;20098;-68
2023/11/11 07:02:22;;;;;;;99.97;47.67;;;;;;;;;;5016527;28;20029;-68
2023/11/11 07:04:53;;;;;;;82.38;42.35;;;;;;;;;;5033940;28;20100;-69
2023/11/11 07:07:19;;;;;;;72.72;37.35;;;;;;;;;;5016318;28;20465;-69
2023/11/11 07:09:46;;;;;;;61.45;34.38;;;;;;;;;;5033892;28;20052;-69
2023/11/11 07:12:12;;;;;;;46.85;25.85;;;;;;;;;;5033687;28;20046;-68
2023/11/11 07:14:38;;;;;;;46.40;24.70;;;;;;;;;;4999804;28;20452;-68
2023/11/11 07:17:03;;;;;;;37.95;22.05;;;;;;;;;;4999477;28;20026;-69
2023/11/11 07:19:28;;;;;;;34.85;20.42;;;;;;;;;;5015549;28;20036;-69
2023/11/11 07:21:54;;;;;;;31.25;19.42;;;;;;;;;;5016004;28;20017;-68
2023/11/11 07:24:19;;;;;;;33.58;20.23;;;;;;;;;;5015523;23;20062;-68
2023/11/11 07:26:44;;;;;;;34.58;20.77;;;;;;;;;;4994339;28;20038;-68
2023/11/11 07:29:10;;;;;;;31.75;19.73;;;;;;;;;;4994630;28;20015;-68
2023/11/11 07:31:36;;;;;;;21.20;14.65;;;;;;;;;;4994605;28;20093;-68
2023/11/11 07:34:02;;;;;;;24.67;16.50;;;;;;;;;;4977710;28;20446;-69
2023/11/11 07:36:28;;;;;;;24.50;15.88;;;;;;;;;;4994267;28;20475;-68
2023/11/11 07:38:53;;;;;;;22.48;14.40;;;;;;;;;;4994183;28;20031;-69
2023/11/11 07:41:19;;;;;;;22.90;15.55;;;;;;;;;;4994770;28;20050;-69
2023/11/11 07:43:44;;;;;;;21.63;15.07;;;;;;;;;;4994170;28;20498;-68
2023/11/11 07:46:10;;;;;;;22.33;15.10;;;;;;;;;;4994460;28;20034;-68
2023/11/11 07:48:35;;;;;;;24.40;15.57;;;;;;;;;;4994411;28;20105;-68
2023/11/11 07:51:05;;;;;;;24.60;17.15;;;;;;;;;;4994387;28;20070;-68
2023/11/11 07:53:31;;;;;;;24.55;16.58;;;;;;;;;;4994393;28;20041;-68
2023/11/11 07:55:58;;;;;;;27.27;16.77;;;;;;;;;;4994053;28;20042;-69
2023/11/11 07:58:23;;;;;;;25.33;16.38;;;;;;;;;;4994262;28;20029;-69
2023/11/11 08:00:50;;;;;;;26.13;16.63;;;;;;;;;;4976604;28;20390;-69
2023/11/11 08:03:15;;;;;;;22.77;16.02;;;;;;;;;;4994260;28;20043;-68
2023/11/11 08:05:41;;;;;;;22.77;15.45;;;;;;;;;;4960525;28;20034;-68
2023/11/11 08:08:06;;;;;;;25.15;16.58;;;;;;;;;;4976564;28;20077;-68
2023/11/11 08:10:33;;;;;;;25.60;16.65;;;;;;;;;;4993944;28;20035;-69
2023/11/11 08:12:58;;;;;;;22.52;15.43;;;;;;;;;;4976429;28;20034;-69
2023/11/11 08:15:24;;;;;;;22.45;15.95;;;;;;;;;;4993901;28;20175;-69
2023/11/11 08:17:50;;;;;;;23.52;16.35;;;;;;;;;;4993804;28;20037;-69
2023/11/11 08:20:18;;;;;;;22.92;15.57;;;;;;;;;;4994439;28;20037;-69
2023/11/11 08:22:44;;;;;;;24.90;16.33;;;;;;;;;;4976770;28;20026;-68
2023/11/11 08:25:13;;;;;;;24.77;16.40;;;;;;;;;;4993661;28;20376;-68
2023/11/11 08:27:38;;;;;;;22.92;15.60;;;;;;;;;;4994088;28;20034;-68
2023/11/11 08:30:06;;;;;;;23.35;15.57;;;;;;;;;;4978667;28;20441;-68
2023/11/11 08:32:32;;;;;;;24.42;15.85;;;;;;;;;;4980111;28;20287;-68
2023/11/11 08:34:57;;;;;;;28.15;17.05;;;;;;;;;;4997696;28;20038;-68
2023/11/11 08:37:22;;;;;;;22.77;16.00;;;;;;;;;;4997851;28;20037;-69
2023/11/11 08:39:48;;;;;;;21.50;15.98;;;;;;;;;;4997913;28;20038;-69
2023/11/11 08:42:14;;;;;;;24.98;15.07;;;;;;;;;;4997563;28;20042;-69
2023/11/11 08:44:39;;;;;;;24.02;15.57;;;;;;;;;;4997246;28;20034;-69
2023/11/11 08:47:06;;;;;;;22.08;14.63;;;;;;;;;;4997490;28;20378;-69
2023/11/11 08:49:31;;;;;;;22.52;15.68;;;;;;;;;;4997440;28;20482;-68
2023/11/11 08:51:56;;;;;;;22.67;14.60;;;;;;;;;;4997135;28;20105;-68
2023/11/11 08:54:22;;;;;;;17.05;12.93;;;;;;;;;;4979593;28;20038;-68
2023/11/11 08:56:47;;;;;;;22.92;14.77;;;;;;;;;;4996942;28;20027;-68
2023/11/11 08:59:14;;;;;;;19.17;13.10;;;;;;;;;;4996982;28;20395;-68
2023/11/11 09:01:39;;;;;;;19.75;14.45;;;;;;;;;;4996955;28;20026;-68
2023/11/11 09:04:05;;;;;;;21.02;14.52;;;;;;;;;;4979369;28;20031;-68
2023/11/11 09:06:31;;;;;;;21.33;15.25;;;;;;;;;;4996891;28;20018;-68
2023/11/11 09:08:56;;;;;;;23.42;14.60;;;;;;;;;;4996847;28;20027;-69
2023/11/11 09:11:22;;;;;;;19.65;13.63;;;;;;;;;;4996803;28;20147;-69
2023/11/11 09:13:47;;;;;;;19.40;13.13;;;;;;;;;;4979231;28;20508;-69
2023/11/11 09:16:13;;;;;;;24.55;14.77;;;;;;;;;;4996836;28;20030;-68
2023/11/11 09:18:39;;;;;;;23.40;15.07;;;;;;;;;;4996547;28;20026;-68
2023/11/11 09:21:07;;;;;;;22.70;15.52;;;;;;;;;;4996602;28;20027;-68
2023/11/11 09:23:33;;;;;;;19.83;13.85;;;;;;;;;;4996351;28;20065;-68
2023/11/11 09:25:58;;;;;;;16.17;12.25;;;;;;;;;;4996795;28;20117;-69
2023/11/11 09:28:23;;;;;;;21.83;13.77;;;;;;;;;;4996455;28;20458;-68
2023/11/11 09:30:51;;;;;;;19.48;13.60;;;;;;;;;;4996404;28;20038;-68
2023/11/11 09:33:17;;;;;;;20.92;13.88;;;;;;;;;;4996649;28;20034;-68
2023/11/11 09:35:46;;;;;;;22.92;15.57;;;;;;;;;;4996379;28;20040;-68
2023/11/11 09:38:17;;;;;;;22.75;15.15;;;;;;;;;;4996193;28;20034;-68
2023/11/11 09:40:43;;;;;;;25.05;16.15;;;;;;;;;;4978370;28;20030;-68
2023/11/11 09:43:09;;;;;;;22.42;15.07;;;;;;;;;;4979004;28;20023;-68
2023/11/11 09:45:35;;;;;;;19.13;13.50;;;;;;;;;;4978605;28;20034;-68
2023/11/11 09:48:03;;;;;;;18.05;12.43;;;;;;;;;;4979342;28;20038;-68
2023/11/11 09:50:29;;;;;;;18.92;12.82;;;;;;;;;;4979472;28;20030;-68
2023/11/11 09:52:55;;;;;;;20.67;14.25;;;;;;;;;;4996024;28;20530;-68
2023/11/11 09:55:21;;;;;;;17.83;12.90;;;;;;;;;;4978649;28;20493;-68
2023/11/11 09:57:48;;;;;;;18.42;12.20;;;;;;;;;;4995827;28;20030;-68
2023/11/11 10:00:14;;;;;;;17.40;11.90;;;;;;;;;;4995830;28;20015;-68
2023/11/11 10:02:39;;;;;;;18.65;12.73;;;;;;;;;;4996128;28;20391;-68
2023/11/11 10:05:05;;;;;;;14.38;11.32;;;;;;;;;;4995733;28;20029;-68
2023/11/11 10:07:32;;;;;;;16.13;11.38;;;;;;;;;;4995742;28;20034;-68
2023/11/11 10:09:57;;;;;;;16.80;12.13;;;;;;;;;;4995969;28;20038;-68
2023/11/11 10:12:24;;;;;;;18.30;12.95;;;;;;;;;;4995914;28;20042;-68
2023/11/11 10:14:49;;;;;;;17.60;12.43;;;;;;;;;;4995875;28;20031;-68
2023/11/11 10:17:14;;;;;;;16.02;12.50;;;;;;;;;;4995471;28;20558;-68
2023/11/11 10:19:41;;;;;;;17.63;12.30;;;;;;;;;;4995518;28;20526;-68
2023/11/11 10:22:08;;;;;;;17.77;13.00;;;;;;;;;;4995730;28;20034;-68
2023/11/11 10:24:33;;;;;;;18.90;13.88;;;;;;;;;;4995525;28;20042;-68
2023/11/11 10:26:59;;;;;;;22.10;14.32;;;;;;;;;;4978254;28;20034;-68
2023/11/11 10:29:24;;;;;;;19.35;14.40;;;;;;;;;;4977967;28;20058;-68
2023/11/11 10:31:51;;;;;;;18.85;13.90;;;;;;;;;;4995289;28;20517;-68
2023/11/11 10:34:17;;;;;;;21.30;15.32;;;;;;;;;;4995779;28;20472;-68
2023/11/11 10:36:44;;;;;;;22.83;15.50;;;;;;;;;;4995101;28;20117;-67
2023/11/11 10:39:11;;;;;;;21.83;15.23;;;;;;;;;;4977756;28;20026;-68
2023/11/11 10:41:40;;;;;;;22.50;15.52;;;;;;;;;;4995365;28;20474;-68
2023/11/11 10:44:06;;;;;;;21.30;14.13;;;;;;;;;;4961517;28;20095;-68
2023/11/11 10:46:32;;;;;;;22.75;14.20;;;;;;;;;;4961532;28;20041;-68
2023/11/11 10:48:59;;;;;;;19.05;13.32;;;;;;;;;;4977663;28;20386;-68
2023/11/11 10:51:25;;;;;;;20.00;14.68;;;;;;;;;;4995167;28;20538;-68
2023/11/11 10:53:50;;;;;;;17.10;13.40;;;;;;;;;;4993993;28;20065;-68
2023/11/11 10:56:16;;;;;;;16.80;12.27;;;;;;;;;;4995042;28;20083;-68
2023/11/11 10:58:42;;;;;;;17.67;12.70;;;;;;;;;;4994745;28;20042;-68
2023/11/11 11:01:07;;;;;;;19.17;13.52;;;;;;;;;;4995037;28;20022;-67
2023/11/11 11:03:34;;;;;;;15.95;11.07;;;;;;;;;;4977612;28;20019;-68
2023/11/11 11:06:07;;;;;;;18.90;13.52;;;;;;;;;;4977977;28;20027;-68
2023/11/11 11:08:41;;;;;;;17.85;13.40;;;;;;;;;;4994910;28;20501;-68
2023/11/11 11:11:07;;;;;;;19.48;13.60;;;;;;;;;;4994852;28;20026;-68
2023/11/11 11:13:33;;;;;;;20.17;13.20;;;;;;;;;;4994577;28;20557;-68
2023/11/11 11:16:00;;;;;;;16.17;12.50;;;;;;;;;;4994519;28;20061;-68
2023/11/11 11:18:27;;;;;;;16.20;12.95;;;;;;;;;;4977848;28;20034;-68
2023/11/11 11:20:54;;;;;;;16.52;12.65;;;;;;;;;;4994451;28;20091;-68
2023/11/11 11:23:21;;;;;;;17.85;13.15;;;;;;;;;;4977093;28;20363;-67
2023/11/11 11:25:48;;;;;;;18.98;13.43;;;;;;;;;;4994296;28;20410;-68
2023/11/11 11:28:14;;;;;;;18.35;14.00;;;;;;;;;;4994640;28;20030;-68
2023/11/11 11:30:46;;;;;;;20.30;14.05;;;;;;;;;;4994339;28;20022;-68
2023/11/11 11:33:14;;;;;;;17.73;13.30;;;;;;;;;;4994874;28;20046;-67
2023/11/11 11:35:43;;;;;;;17.75;13.40;;;;;;;;;;4994537;28;20110;-67
2023/11/11 11:38:09;;;;;;;17.90;12.65;;;;;;;;;;4994433;28;20482;-68
2023/11/11 11:40:35;;;;;;;19.85;15.23;;;;;;;;;;4994171;28;20044;-68
2023/11/11 11:43:03;;;;;;;16.55;12.70;;;;;;;;;;4994228;28;20466;-67
2023/11/11 11:45:30;;;;;;;17.10;12.90;;;;;;;;;;4976854;28;20027;-67
2023/11/11 11:47:57;;;;;;;16.63;12.40;;;;;;;;;;4976899;28;20027;-68
2023/11/11 11:50:22;;;;;;;18.23;12.90;;;;;;;;;;4994149;28;20042;-68
2023/11/11 11:52:50;;;;;;;16.63;11.13;;;;;;;;;;4976619;28;20089;-68
2023/11/11 11:55:16;;;;;;;14.50;11.13;;;;;;;;;;4994607;28;20455;-67
2023/11/11 11:57:55;;;;;;;14.20;10.45;;;;;;;;;;4993950;28;20469;-68
2023/11/11 12:00:22;;;;;;;15.13;10.85;;;;;;;;;;4994072;28;20034;-68
2023/11/11 12:02:49;;;;;;;64.53;33.08;;;;;;;;;;4994550;28;20027;-68
2023/11/11 12:05:15;;;;;;;86.93;44.63;;;;;;;;;;4996765;28;20025;-68
2023/11/11 12:07:48;;;;;;;78.28;44.53;;;;;;;;;;4997954;28;20034;-68
2023/11/11 12:10:13;;;;;;;94.45;57.55;;;;;;;;;;4998176;28;20498;-68
2023/11/11 12:12:39;;;;;;;39.75;25.42;;;;;;;;;;4997857;28;20026;-68
2023/11/11 12:15:13;;;;;;;16.70;12.63;;;;;;;;;;4997806;28;20371;-67
2023/11/11 12:17:42;;;;;;;18.17;12.88;;;;;;;;;;4997995;28;20046;-68
2023/11/11 12:20:08;;;;;;;19.00;12.73;;;;;;;;;;4998259;28;20113;-67
2023/11/11 12:22:33;;;;;;;17.38;11.13;;;;;;;;;;4997937;28;20482;-68
2023/11/11 12:24:59;;;;;;;17.58;11.75;;;;;;;;;;5012559;28;20069;-68
2023/11/11 12:27:25;;;;;;;23.33;12.93;;;;;;;;;;4980475;28;20088;-68
2023/11/11 12:29:51;;;;;;;27.38;14.70;;;;;;;;;;4980036;28;20105;-68
2023/11/11 12:32:17;;;;;;;21.08;12.15;;;;;;;;;;4980378;28;20030;-67
2023/11/11 12:34:43;;;;;;;20.00;12.43;;;;;;;;;;4997427;28;20390;-67
2023/11/11 12:37:09;;;;;;;19.00;12.70;;;;;;;;;;4997650;28;20037;-68
2023/11/11 12:42:03;;;;;;;28.60;13.93;;;;;;;;;;5021862;23;20146;-68
2023/11/11 12:44:33;;;;;;;22.20;13.13;;;;;;;;;;4979771;28;20033;-67
2023/11/11 12:46:58;;;;;;;22.17;14.38;;;;;;;;;;4997609;28;20037;-67
2023/11/11 12:49:27;;;;;;;17.90;12.35;;;;;;;;;;4979710;28;20393;-67
2023/11/11 12:51:55;;;;;;;13.30;10.10;;;;;;;;;;4997501;28;20541;-67
2023/11/11 12:54:28;;;;;;;13.57;9.77;;;;;;;;;;4997159;28;20520;-67
2023/11/11 12:56:53;;;;;;;13.07;10.07;;;;;;;;;;4979690;28;20038;-67
2023/11/11 12:59:20;;;;;;;15.07;10.55;;;;;;;;;;4979958;28;20021;-67
2023/11/11 13:01:46;;;;;;;13.80;10.55;;;;;;;;;;4996977;28;20041;-68
2023/11/11 13:04:16;;;;;;;16.38;10.73;;;;;;;;;;4997237;28;20034;-68
2023/11/11 13:06:41;;;;;;;14.55;11.25;;;;;;;;;;4979634;28;20069;-68
2023/11/11 13:09:13;;;;;;;15.02;11.02;;;;;;;;;;4996864;28;20476;-68
2023/11/11 13:11:39;;;;;;;13.65;9.90;;;;;;;;;;4979701;28;20458;-68
2023/11/11 13:14:05;;;;;;;16.58;11.10;;;;;;;;;;4996785;28;20031;-68
2023/11/11 13:16:30;;;;;;;17.88;12.38;;;;;;;;;;4978211;28;20064;-68
2023/11/11 13:18:56;;;;;;;20.27;12.70;;;;;;;;;;4996876;28;20034;-68
2023/11/11 13:21:26;;;;;;;19.52;12.18;;;;;;;;;;4979104;28;20037;-68
2023/11/11 13:23:52;;;;;;;20.83;13.68;;;;;;;;;;4996678;28;20034;-68
2023/11/11 13:26:17;;;;;;;29.00;16.02;;;;;;;;;;4996840;28;20093;-68
2023/11/11 13:28:43;;;;;;;22.67;14.48;;;;;;;;;;4996496;28;20464;-68
2023/11/11 13:31:09;;;;;;;19.40;13.23;;;;;;;;;;4963412;28;20081;-68
2023/11/11 13:33:35;;;;;;;22.05;12.98;;;;;;;;;;4996721;28;20089;-69
2023/11/11 13:36:06;;;;;;;39.03;25.08;;;;;;;;;;4979037;28;20429;-69
2023/11/11 13:38:31;;;;;;;59.22;37.08;;;;;;;;;;4996293;28;20034;-69
2023/11/11 13:40:56;;;;;;;32.80;20.83;;;;;;;;;;4978935;28;20401;-69
2023/11/11 13:43:22;;;;;;;26.20;16.80;;;;;;;;;;4978519;28;20409;-69
2023/11/11 13:45:48;;;;;;;27.45;19.10;;;;;;;;;;4996478;28;20109;-69
2023/11/11 13:48:14;;;;;;;25.70;17.17;;;;;;;;;;4996146;28;20106;-69
2023/11/11 13:50:39;;;;;;;24.85;18.40;;;;;;;;;;4962614;28;20142;-69
2023/11/11 13:53:06;;;;;;;32.28;21.85;;;;;;;;;;4978600;28;20022;-69
2023/11/11 13:55:31;;;;;;;23.33;17.00;;;;;;;;;;4995993;28;20039;-69
2023/11/11 13:57:59;;;;;;;23.42;16.58;;;;;;;;;;4996194;28;20100;-69
2023/11/11 14:00:27;;;;;;;27.75;17.15;;;;;;;;;;4996173;28;20026;-69
2023/11/11 14:02:55;;;;;;;29.23;18.17;;;;;;;;;;4996148;28;20030;-68
2023/11/11 14:05:21;;;;;;;27.73;17.48;;;;;;;;;;4995849;28;20458;-69
2023/11/11 14:07:48;;;;;;;39.03;23.70;;;;;;;;;;4995785;28;20030;-69
2023/11/11 14:10:15;;;;;;;60.33;32.92;;;;;;;;;;4995711;28;20062;-68
2023/11/11 14:12:41;;;;;;;72.70;39.58;;;;;;;;;;4978284;28;20104;-68
2023/11/11 14:15:07;;;;;;;45.85;29.20;;;;;;;;;;4995897;28;20026;-69
2023/11/11 14:17:32;;;;;;;42.63;27.60;;;;;;;;;;4978135;28;20409;-68
2023/11/11 14:19:58;;;;;;;30.17;21.98;;;;;;;;;;4995519;28;20031;-68